Time;durP1;ratioP1;P1;durP2;ratioP2;P2;SDS_P1;SDS_P2;PMS_P1;PMS_P2;Temp;Humidity;BMP_temperature;BMP_pressure;BME280_temperature;BME280_humidity;BME280_pressure;Samples;Min_cycle;Max_cycle;Signal;HPM_P1;HPM_P2
2022/11/02 00:00:00;;;;;;;0.32;0.13;;;17.60;99.90;;;;;;4994330;28;20203;-73
2022/11/02 00:02:31;;;;;;;0.50;0.20;;;17.50;99.90;;;;;;4989059;28;20254;-74
2022/11/02 00:05:04;;;;;;;2.45;0.30;;;17.40;99.90;;;;;;4991244;28;20200;-75
2022/11/02 00:07:35;;;;;;;0.60;0.35;;;17.70;99.90;;;;;;4992261;28;20209;-73
2022/11/02 00:10:06;;;;;;;3.35;0.30;;;17.80;99.90;;;;;;4990503;28;20211;-73
2022/11/02 00:12:37;;;;;;;0.35;0.17;;;17.70;99.90;;;;;;4990061;28;20203;-72
2022/11/02 00:15:09;;;;;;;0.47;0.10;;;17.70;99.90;;;;;;4992731;28;20206;-76
2022/11/02 00:17:41;;;;;;;0.20;0.10;;;17.60;99.90;;;;;;4992158;28;20557;-74
2022/11/02 00:20:16;;;;;;;0.77;0.20;;;17.50;99.90;;;;;;4993881;28;20191;-73
2022/11/02 00:22:48;;;;;;;0.20;0.20;;;17.70;99.90;;;;;;4992671;28;20223;-73
2022/11/02 00:25:22;;;;;;;1.38;0.17;;;17.80;99.90;;;;;;4991638;28;20192;-73
2022/11/02 00:27:52;;;;;;;0.63;0.20;;;18.00;99.90;;;;;;4983472;28;20557;-75
2022/11/02 00:30:23;;;;;;;0.20;0.20;;;18.00;99.90;;;;;;4991390;28;20191;-73
2022/11/02 00:32:54;;;;;;;0.13;0.13;;;18.00;99.90;;;;;;4991051;28;20196;-74
2022/11/02 00:35:27;;;;;;;0.10;0.10;;;18.40;99.90;;;;;;4991413;28;20656;-74
2022/11/02 00:37:58;;;;;;;0.52;0.20;;;18.60;99.90;;;;;;4987855;28;20231;-78
2022/11/02 00:40:29;;;;;;;21.25;15.07;;;18.80;99.90;;;;;;4992879;28;20251;-76
2022/11/02 00:43:00;;;;;;;1.40;0.88;;;18.90;99.90;;;;;;4992504;28;20237;-74
2022/11/02 00:45:31;;;;;;;0.80;0.50;;;18.80;99.90;;;;;;4991415;28;20199;-73
2022/11/02 00:48:01;;;;;;;0.28;0.28;;;18.70;99.90;;;;;;4992959;28;20214;-77
2022/11/02 00:50:38;;;;;;;5.03;0.73;;;18.60;99.90;;;;;;4992480;28;20576;-76
2022/11/02 00:53:08;;;;;;;0.70;0.60;;;18.60;99.90;;;;;;4987176;28;20209;-75
2022/11/02 00:55:39;;;;;;;1.27;0.80;;;18.50;99.90;;;;;;4993215;28;20203;-73
2022/11/02 00:58:11;;;;;;;1.00;0.20;;;18.60;99.90;;;;;;4989394;28;20204;-74
2022/11/02 01:00:42;;;;;;;0.35;0.20;;;18.70;99.90;;;;;;4993149;28;20200;-72
2022/11/02 01:03:12;;;;;;;0.35;0.20;;;18.70;99.90;;;;;;4991047;28;20231;-72
2022/11/02 01:05:45;;;;;;;7.80;4.32;;;18.60;99.90;;;;;;4991000;28;20199;-73
2022/11/02 01:08:16;;;;;;;1.33;0.70;;;18.60;99.90;;;;;;4987575;28;20671;-72
2022/11/02 01:10:48;;;;;;;2.47;0.45;;;18.50;99.90;;;;;;4992354;28;20210;-75
2022/11/02 01:13:20;;;;;;;0.45;0.20;;;18.70;99.90;;;;;;4986521;28;20189;-73
2022/11/02 01:15:50;;;;;;;1.27;0.20;;;18.70;99.90;;;;;;4987431;28;20196;-73
2022/11/02 01:18:22;;;;;;;0.45;0.10;;;18.60;99.90;;;;;;4990477;28;20291;-73
2022/11/02 01:21:02;;;;;;;0.20;0.20;;;18.80;99.90;;;;;;4989532;28;20192;-74
2022/11/02 01:23:34;;;;;;;1.45;0.20;;;18.80;99.90;;;;;;4992245;28;20217;-73
2022/11/02 01:26:06;;;;;;;0.32;0.20;;;18.90;99.90;;;;;;4990960;28;20530;-73
2022/11/02 01:28:38;;;;;;;0.10;0.10;;;18.80;99.90;;;;;;4987775;28;20639;-73
2022/11/02 01:31:09;;;;;;;0.80;0.20;;;18.80;99.90;;;;;;4984688;28;20546;-73
2022/11/02 01:33:44;;;;;;;0.40;0.20;;;18.90;99.90;;;;;;4985655;28;20198;-74
2022/11/02 01:36:19;;;;;;;0.28;0.20;;;18.90;99.90;;;;;;4984987;28;20203;-73
2022/11/02 01:38:51;;;;;;;0.20;0.20;;;18.90;99.90;;;;;;4990749;28;20235;-73
2022/11/02 01:41:22;;;;;;;0.32;0.30;;;18.70;99.90;;;;;;4992983;28;20183;-74
2022/11/02 01:43:57;;;;;;;1.65;0.30;;;18.70;99.90;;;;;;4992972;28;20639;-74
2022/11/02 01:46:34;;;;;;;2.40;1.40;;;18.50;99.90;;;;;;4985893;28;20218;-74
2022/11/02 01:49:08;;;;;;;0.45;0.45;;;18.40;99.90;;;;;;4992996;28;20267;-73
2022/11/02 01:51:45;;;;;;;1.17;0.20;;;18.40;99.90;;;;;;4992697;28;20275;-73
2022/11/02 01:54:18;;;;;;;3.15;0.40;;;18.40;99.90;;;;;;4993038;28;20673;-74
2022/11/02 01:56:54;;;;;;;0.73;0.30;;;18.60;99.90;;;;;;4992538;28;20194;-72
2022/11/02 01:59:30;;;;;;;0.82;0.10;;;18.60;99.90;;;;;;4992603;28;20565;-73
2022/11/02 02:02:00;;;;;;;1.17;0.20;;;18.70;99.90;;;;;;4993100;28;20290;-73
2022/11/02 02:04:33;;;;;;;0.32;0.25;;;18.90;99.90;;;;;;4988173;28;20199;-73
2022/11/02 02:07:07;;;;;;;1.00;0.20;;;18.90;99.90;;;;;;4992877;28;20188;-73
2022/11/02 02:09:38;;;;;;;0.30;0.28;;;19.00;99.90;;;;;;4979780;28;20200;-73
2022/11/02 02:12:09;;;;;;;0.77;0.25;;;18.90;99.90;;;;;;4991870;28;20211;-74
2022/11/02 02:14:40;;;;;;;1.17;0.20;;;18.90;99.90;;;;;;4987706;28;20193;-73
2022/11/02 02:17:23;;;;;;;2.97;0.57;;;18.90;99.90;;;;;;4990265;28;20231;-73
2022/11/02 02:19:59;;;;;;;1.35;0.10;;;18.90;99.90;;;;;;4990419;28;20669;-74
2022/11/02 02:23:00;;;;;;;0.10;0.10;;;19.10;99.90;;;;;;4992485;28;20219;-74
2022/11/02 02:25:56;;;;;;;0.30;0.20;;;19.10;99.90;;;;;;4988999;28;20258;-73
2022/11/02 02:28:36;;;;;;;0.20;0.20;;;19.10;99.90;;;;;;4994981;28;20227;-73
2022/11/02 02:31:14;;;;;;;0.30;0.20;;;19.20;99.90;;;;;;4993925;28;20203;-73
2022/11/02 02:33:51;;;;;;;0.17;0.15;;;19.30;99.90;;;;;;4985549;28;20211;-78
2022/11/02 02:36:26;;;;;;;0.50;0.10;;;19.30;99.90;;;;;;4987806;28;20227;-73
2022/11/02 02:39:04;;;;;;;0.68;0.10;;;19.00;99.90;;;;;;4994367;28;20234;-73
2022/11/02 02:41:39;;;;;;;0.32;0.17;;;19.00;99.90;;;;;;4992313;28;20556;-73
2022/11/02 02:44:16;;;;;;;0.35;0.20;;;18.90;99.90;;;;;;4991693;28;20195;-73
2022/11/02 02:46:52;;;;;;;1.00;0.40;;;19.00;99.90;;;;;;4992318;28;20195;-73
2022/11/02 02:49:27;;;;;;;0.10;0.10;;;19.00;99.90;;;;;;4988074;28;20199;-74
2022/11/02 02:52:00;;;;;;;0.90;0.20;;;19.00;99.90;;;;;;4988954;28;20292;-73
2022/11/02 02:54:37;;;;;;;1.02;0.20;;;19.20;99.90;;;;;;4987649;28;20203;-73
2022/11/02 02:57:12;;;;;;;0.15;0.15;;;19.30;99.90;;;;;;4991750;28;20211;-74
2022/11/02 02:59:47;;;;;;;1.60;0.10;;;19.30;99.90;;;;;;4993157;28;20206;-76
2022/11/02 03:02:21;;;;;;;1.75;0.10;;;19.20;99.90;;;;;;4987933;28;20693;-73
2022/11/02 03:04:52;;;;;;;0.15;0.10;;;19.00;99.90;;;;;;4986473;28;20214;-76
2022/11/02 03:07:30;;;;;;;1.65;0.20;;;19.00;99.90;;;;;;4993170;28;20278;-73
2022/11/02 03:10:12;;;;;;;0.13;0.13;;;19.20;99.90;;;;;;4989558;28;20263;-74
2022/11/02 03:12:48;;;;;;;0.32;0.30;;;19.30;99.90;;;;;;4992557;28;20203;-74
2022/11/02 03:15:26;;;;;;;0.30;0.20;;;19.40;99.90;;;;;;4993264;28;20195;-75
2022/11/02 03:18:04;;;;;;;0.10;0.10;;;19.50;99.90;;;;;;4994794;28;20195;-73
2022/11/02 03:20:47;;;;;;;0.25;0.20;;;19.50;99.90;;;;;;4995378;28;20206;-75
2022/11/02 03:23:24;;;;;;;0.10;0.10;;;19.30;99.90;;;;;;4987803;28;20227;-76
2022/11/02 03:26:02;;;;;;;0.52;0.20;;;19.10;99.90;;;;;;4994960;28;20283;-74
2022/11/02 03:28:49;;;;;;;0.10;0.10;;;19.10;99.90;;;;;;4995476;28;20206;-75
2022/11/02 03:31:33;;;;;;;1.48;0.15;;;19.20;99.90;;;;;;4989817;28;20199;-75
2022/11/02 03:34:11;;;;;;;0.38;0.20;;;19.20;99.90;;;;;;4994754;28;20681;-75
2022/11/02 03:36:46;;;;;;;0.30;0.20;;;19.20;99.90;;;;;;4992277;28;20203;-73
2022/11/02 03:39:21;;;;;;;0.17;0.10;;;19.30;99.90;;;;;;4990837;28;20247;-74
2022/11/02 03:41:54;;;;;;;1.02;0.20;;;19.40;99.90;;;;;;4994873;28;20201;-73
2022/11/02 03:44:26;;;;;;;0.22;0.20;;;19.30;99.90;;;;;;4989207;28;20213;-74
2022/11/02 03:47:01;;;;;;;0.55;0.17;;;19.30;99.90;;;;;;4994537;28;20203;-74
2022/11/02 03:49:33;;;;;;;1.40;0.25;;;19.20;99.90;;;;;;4994769;28;20195;-73
2022/11/02 03:52:09;;;;;;;1.35;0.20;;;19.40;99.90;;;;;;4992983;28;20234;-75
2022/11/02 03:54:46;;;;;;;0.80;0.10;;;19.60;99.90;;;;;;4993895;28;20203;-74
2022/11/02 03:57:23;;;;;;;0.63;0.20;;;19.50;99.90;;;;;;4987285;28;20217;-72
2022/11/02 03:59:54;;;;;;;1.60;0.17;;;19.40;99.90;;;;;;4994500;28;20195;-76
2022/11/02 04:02:31;;;;;;;0.50;0.38;;;19.40;99.90;;;;;;4992748;28;20223;-73
2022/11/02 04:05:02;;;;;;;1.77;0.30;;;19.30;99.90;;;;;;4990482;28;20237;-75
2022/11/02 04:10:19;;;;;;;1.25;0.20;;;19.50;99.90;;;;;;4981751;28;20288;-73
2022/11/02 04:15:36;;;;;;;0.30;0.10;;;19.50;99.90;;;;;;4987102;28;20246;-75
2022/11/02 04:20:56;;;;;;;2.53;0.30;;;19.50;99.90;;;;;;4984671;28;20195;-75
2022/11/02 04:26:13;;;;;;;0.82;0.10;;;19.80;99.90;;;;;;4994162;28;20673;-73
2022/11/02 04:28:45;;;;;;;0.10;0.10;;;19.80;99.90;;;;;;4993722;28;20206;-76
2022/11/02 04:31:16;;;;;;;0.25;0.20;;;19.80;99.90;;;;;;4992730;28;20231;-75
2022/11/02 04:33:47;;;;;;;0.43;0.25;;;19.60;99.90;;;;;;4994212;28;20204;-74
2022/11/02 04:36:18;;;;;;;1.80;0.20;;;19.60;99.90;;;;;;4993961;28;20200;-74
2022/11/02 04:38:47;;;;;;;0.20;0.20;;;19.50;99.90;;;;;;4990593;28;20235;-75
2022/11/02 04:44:06;;;;;;;0.35;0.20;;;19.80;99.90;;;;;;4980978;28;20607;-78
2022/11/02 04:46:38;;;;;;;0.20;0.10;;;19.80;99.90;;;;;;4992617;28;20654;-73
2022/11/02 04:49:10;;;;;;;0.60;0.17;;;19.80;99.90;;;;;;4990760;28;20203;-74
2022/11/02 04:51:41;;;;;;;0.20;0.17;;;19.70;99.90;;;;;;4992642;28;20559;-75
2022/11/02 04:54:12;;;;;;;0.30;0.10;;;19.80;99.90;;;;;;4993581;28;20195;-75
2022/11/02 04:56:43;;;;;;;0.10;0.10;;;19.80;99.90;;;;;;4992440;28;20200;-73
2022/11/02 04:59:14;;;;;;;0.10;0.10;;;19.60;99.90;;;;;;4993063;28;20195;-73
2022/11/02 05:01:45;;;;;;;0.50;0.28;;;19.60;99.90;;;;;;4992169;28;20198;-74
2022/11/02 05:04:18;;;;;;;0.10;0.10;;;19.70;99.90;;;;;;4992936;28;20251;-73
2022/11/02 05:06:49;;;;;;;0.50;0.20;;;19.80;99.90;;;;;;4992802;28;20651;-74
2022/11/02 05:09:20;;;;;;;0.95;0.10;;;19.90;99.90;;;;;;4992287;28;20195;-73
2022/11/02 05:11:50;;;;;;;1.00;0.20;;;19.90;99.90;;;;;;4989228;28;20275;-74
2022/11/02 05:14:21;;;;;;;0.20;0.20;;;19.80;99.90;;;;;;4981899;28;20227;-72
2022/11/02 05:16:52;;;;;;;0.65;0.20;;;19.70;99.90;;;;;;4987593;28;20202;-72
2022/11/02 05:19:25;;;;;;;0.28;0.20;;;19.60;99.90;;;;;;4992726;28;20195;-74
2022/11/02 05:21:58;;;;;;;0.15;0.10;;;19.70;99.90;;;;;;4992693;28;20202;-79
2022/11/02 05:24:29;;;;;;;0.20;0.10;;;19.60;99.90;;;;;;4992578;28;20223;-77
2022/11/02 05:27:00;;;;;;;0.77;0.20;;;19.50;99.90;;;;;;4991671;28;20291;-73
2022/11/02 05:29:31;;;;;;;0.20;0.20;;;19.60;99.90;;;;;;4991003;28;20290;-75
2022/11/02 05:32:02;;;;;;;1.60;0.40;;;19.50;99.90;;;;;;4992225;28;20206;-74
2022/11/02 05:34:35;;;;;;;0.80;0.20;;;19.50;99.90;;;;;;4993150;28;20316;-75
2022/11/02 05:37:06;;;;;;;2.80;0.90;;;19.50;99.90;;;;;;4989217;28;20288;-73
2022/11/02 05:39:38;;;;;;;1.35;0.30;;;19.50;99.90;;;;;;4982671;28;20234;-72
2022/11/02 05:42:10;;;;;;;0.30;0.20;;;19.60;99.90;;;;;;4988684;28;20195;-71
2022/11/02 05:44:41;;;;;;;0.98;0.10;;;19.60;99.90;;;;;;4991959;28;20223;-73
2022/11/02 05:47:12;;;;;;;0.40;0.30;;;19.60;99.90;;;;;;4993281;28;20278;-75
2022/11/02 05:49:44;;;;;;;0.40;0.32;;;19.40;99.90;;;;;;4993181;28;20271;-71
2022/11/02 05:52:15;;;;;;;0.30;0.20;;;19.40;99.90;;;;;;4992929;28;20194;-71
2022/11/02 05:54:46;;;;;;;1.70;0.30;;;19.40;99.90;;;;;;4985110;28;20191;-75
2022/11/02 05:57:17;;;;;;;0.20;0.20;;;19.10;99.90;;;;;;4988388;28;20700;-73
2022/11/02 05:59:48;;;;;;;0.60;0.22;;;18.80;99.90;;;;;;4987062;28;20191;-72
2022/11/02 06:02:19;;;;;;;0.50;0.20;;;18.90;99.90;;;;;;4992477;28;20206;-74
2022/11/02 06:04:52;;;;;;;0.20;0.20;;;19.10;99.90;;;;;;4981164;28;20255;-76
2022/11/02 06:07:24;;;;;;;1.58;0.30;;;19.30;99.90;;;;;;4992889;28;20196;-72
2022/11/02 06:09:55;;;;;;;0.10;0.10;;;19.40;99.90;;;;;;4995802;28;20274;-73
2022/11/02 06:12:26;;;;;;;0.68;0.15;;;19.40;99.90;;;;;;4993305;28;20274;-73
2022/11/02 06:14:57;;;;;;;0.30;0.30;;;19.40;99.90;;;;;;4997093;28;20238;-73
2022/11/02 06:17:28;;;;;;;0.40;0.20;;;19.50;99.90;;;;;;4992332;28;20188;-73
2022/11/02 06:20:01;;;;;;;1.23;0.20;;;19.40;99.90;;;;;;4993293;28;20196;-73
2022/11/02 06:22:32;;;;;;;0.25;0.15;;;19.30;99.90;;;;;;4996917;28;20188;-74
2022/11/02 06:25:04;;;;;;;0.43;0.20;;;19.10;99.90;;;;;;4987076;28;20222;-74
2022/11/02 06:27:35;;;;;;;0.15;0.15;;;18.90;99.90;;;;;;4996450;28;20192;-74
2022/11/02 06:30:08;;;;;;;1.17;0.38;;;18.90;99.90;;;;;;4996559;28;20275;-72
2022/11/02 06:32:39;;;;;;;0.80;0.20;;;18.90;99.90;;;;;;4992159;28;20293;-78
2022/11/02 06:35:13;;;;;;;0.40;0.20;;;18.80;99.90;;;;;;4999597;28;20630;-76
2022/11/02 06:37:43;;;;;;;0.70;0.38;;;18.60;99.90;;;;;;4995188;28;20250;-73
2022/11/02 06:40:16;;;;;;;0.20;0.20;;;18.60;99.90;;;;;;4993031;28;20311;-72
2022/11/02 06:42:47;;;;;;;0.60;0.25;;;18.60;99.90;;;;;;4995683;28;21286;-72
2022/11/02 06:45:18;;;;;;;0.63;0.30;;;18.70;99.90;;;;;;4996454;28;20298;-73
2022/11/02 06:47:51;;;;;;;0.93;0.25;;;18.80;99.90;;;;;;4996163;28;20696;-73
2022/11/02 06:50:25;;;;;;;0.70;0.40;;;18.80;99.90;;;;;;4995886;28;20196;-73
2022/11/02 06:52:56;;;;;;;1.75;0.40;;;18.60;99.90;;;;;;4988589;28;21788;-75
2022/11/02 06:55:27;;;;;;;0.15;0.15;;;18.40;99.90;;;;;;4996194;28;20195;-75
2022/11/02 06:57:59;;;;;;;1.52;0.30;;;18.30;99.90;;;;;;4995496;28;20239;-76
2022/11/02 07:00:30;;;;;;;0.20;0.20;;;18.20;99.90;;;;;;4991413;28;20314;-73
2022/11/02 07:03:05;;;;;;;0.50;0.30;;;18.00;99.90;;;;;;4995637;28;20196;-74
2022/11/02 07:05:39;;;;;;;0.57;0.30;;;17.90;99.90;;;;;;4995707;28;20188;-75
2022/11/02 07:08:10;;;;;;;1.10;0.30;;;17.80;99.90;;;;;;4993434;28;20234;-72
2022/11/02 07:10:42;;;;;;;0.90;0.20;;;17.80;99.90;;;;;;4990888;28;20219;-74
2022/11/02 07:13:14;;;;;;;1.30;0.30;;;17.70;99.90;;;;;;4994882;28;20209;-76
2022/11/02 07:15:45;;;;;;;0.80;0.28;;;17.60;99.90;;;;;;4988323;28;20192;-72
2022/11/02 07:18:16;;;;;;;0.63;0.30;;;17.60;99.90;;;;;;4993103;28;20659;-75
2022/11/02 07:20:49;;;;;;;0.95;0.20;;;17.60;99.90;;;;;;4995356;28;20202;-74
2022/11/02 07:23:23;;;;;;;0.43;0.20;;;17.60;99.90;;;;;;4995655;28;20206;-74
2022/11/02 07:25:54;;;;;;;1.27;0.35;;;17.50;99.90;;;;;;4994225;28;20198;-74
2022/11/02 07:28:25;;;;;;;0.45;0.20;;;17.40;99.90;;;;;;4994006;28;20196;-75
2022/11/02 07:30:57;;;;;;;0.63;0.20;;;17.40;99.90;;;;;;4989782;28;20279;-74
2022/11/02 07:33:28;;;;;;;0.65;0.50;;;17.30;99.90;;;;;;4992886;28;20208;-75
2022/11/02 07:36:04;;;;;;;0.40;0.40;;;17.20;99.90;;;;;;4989699;28;20676;-74
2022/11/02 07:38:35;;;;;;;0.77;0.38;;;17.20;99.90;;;;;;4992340;28;20687;-75
2022/11/02 07:41:06;;;;;;;0.75;0.30;;;17.10;99.90;;;;;;4990403;28;20197;-72
2022/11/02 07:43:38;;;;;;;0.20;0.20;;;17.10;99.90;;;;;;4994807;28;20631;-75
2022/11/02 07:46:10;;;;;;;0.38;0.20;;;16.90;99.90;;;;;;4989905;28;20203;-74
2022/11/02 07:48:41;;;;;;;0.30;0.30;;;16.80;99.90;;;;;;4989735;28;20211;-72
2022/11/02 07:51:15;;;;;;;0.40;0.30;;;16.70;99.90;;;;;;4989007;28;20208;-74
2022/11/02 07:53:48;;;;;;;1.10;0.30;;;16.70;99.90;;;;;;4992577;28;20282;-73
2022/11/02 07:56:21;;;;;;;0.57;0.28;;;16.70;99.90;;;;;;4994483;28;20192;-73
2022/11/02 07:58:52;;;;;;;0.55;0.40;;;16.70;99.90;;;;;;4994443;28;20188;-74
2022/11/02 08:01:23;;;;;;;0.40;0.40;;;16.60;99.90;;;;;;4994256;28;20188;-73
2022/11/02 08:03:55;;;;;;;0.65;0.30;;;16.50;99.90;;;;;;4991965;28;20572;-76
2022/11/02 08:06:28;;;;;;;0.30;0.20;;;16.40;99.90;;;;;;4992493;28;20213;-74
2022/11/02 08:08:59;;;;;;;0.68;0.20;;;16.30;99.90;;;;;;4992124;28;20707;-73
2022/11/02 08:11:30;;;;;;;0.20;0.20;;;16.20;99.90;;;;;;4994209;28;20560;-74
2022/11/02 08:14:01;;;;;;;0.30;0.30;;;16.10;99.90;;;;;;4994271;28;20192;-74
2022/11/02 08:16:32;;;;;;;1.88;0.32;;;16.10;99.90;;;;;;4994282;28;20188;-73
2022/11/02 08:19:03;;;;;;;1.08;0.40;;;16.00;99.90;;;;;;4993629;28;20271;-74
2022/11/02 08:21:36;;;;;;;1.55;0.30;;;15.90;99.90;;;;;;4993804;28;20552;-73
2022/11/02 08:24:10;;;;;;;0.40;0.25;;;15.90;99.90;;;;;;4993250;28;20549;-73
2022/11/02 08:26:41;;;;;;;0.40;0.30;;;15.80;99.90;;;;;;4994111;28;20744;-73
2022/11/02 08:29:12;;;;;;;0.85;0.30;;;15.80;99.90;;;;;;4993645;28;20192;-73
2022/11/02 08:31:46;;;;;;;0.20;0.20;;;15.80;99.90;;;;;;4993987;28;20647;-73
2022/11/02 08:34:24;;;;;;;1.00;0.55;;;15.70;99.90;;;;;;4990682;28;20192;-72
2022/11/02 08:36:59;;;;;;;0.32;0.20;;;15.60;99.90;;;;;;4990381;28;20237;-72
2022/11/02 08:39:30;;;;;;;1.13;0.38;;;15.60;99.90;;;;;;4991503;28;20226;-73
2022/11/02 08:42:02;;;;;;;0.85;0.40;;;15.50;99.90;;;;;;4993503;28;20221;-72
2022/11/02 08:44:33;;;;;;;0.32;0.30;;;15.50;99.90;;;;;;4993324;28;20230;-74
2022/11/02 08:47:05;;;;;;;1.30;0.30;;;15.50;99.90;;;;;;4993475;28;20196;-72
2022/11/02 08:49:36;;;;;;;0.45;0.30;;;15.50;99.90;;;;;;4993459;28;20270;-73
2022/11/02 08:52:09;;;;;;;0.75;0.30;;;15.50;99.90;;;;;;4993337;28;20188;-72
2022/11/02 08:54:40;;;;;;;0.70;0.40;;;15.50;99.90;;;;;;4993477;28;20187;-72
2022/11/02 08:57:11;;;;;;;0.20;0.20;;;15.40;99.90;;;;;;4993158;28;20206;-72
2022/11/02 08:59:43;;;;;;;2.25;0.40;;;15.40;99.90;;;;;;4991503;28;20658;-72
2022/11/02 09:02:14;;;;;;;1.13;0.30;;;15.30;99.90;;;;;;4992815;28;20198;-72
2022/11/02 09:04:45;;;;;;;1.85;0.40;;;15.20;99.90;;;;;;4991998;28;20703;-74
2022/11/02 09:07:19;;;;;;;0.63;0.38;;;15.20;99.90;;;;;;4992369;28;20187;-73
2022/11/02 09:09:51;;;;;;;1.02;0.45;;;15.20;99.90;;;;;;4992740;28;20782;-72
2022/11/02 09:12:22;;;;;;;1.42;0.50;;;15.20;99.90;;;;;;4990366;28;20198;-75
2022/11/02 09:14:53;;;;;;;1.45;0.30;;;15.20;99.90;;;;;;4992988;28;20191;-72
2022/11/02 09:17:24;;;;;;;0.73;0.35;;;15.20;99.90;;;;;;4992342;28;20188;-72
2022/11/02 09:19:55;;;;;;;1.23;0.50;;;15.20;99.90;;;;;;4992896;28;20192;-73
2022/11/02 09:22:28;;;;;;;1.23;0.45;;;15.10;99.90;;;;;;4990807;28;20191;-71
2022/11/02 09:24:59;;;;;;;0.50;0.30;;;15.10;99.90;;;;;;4990299;28;20211;-73
2022/11/02 09:27:30;;;;;;;1.20;0.38;;;15.10;99.90;;;;;;4992355;28;20190;-74
2022/11/02 09:30:02;;;;;;;0.57;0.30;;;15.10;99.90;;;;;;4992167;28;20199;-73
2022/11/02 09:32:34;;;;;;;2.33;0.40;;;15.10;99.90;;;;;;4992261;28;20206;-72
2022/11/02 09:35:07;;;;;;;0.73;0.40;;;15.10;99.90;;;;;;4992782;28;20246;-76
2022/11/02 09:37:40;;;;;;;0.75;0.45;;;15.10;99.90;;;;;;4991379;28;20234;-72
2022/11/02 09:40:15;;;;;;;1.55;0.32;;;15.10;99.90;;;;;;4992535;28;20234;-74
2022/11/02 09:42:57;;;;;;;1.55;0.40;;;15.10;99.90;;;;;;4992284;28;20191;-72
2022/11/02 09:45:31;;;;;;;0.90;0.50;;;15.00;99.90;;;;;;4990674;28;20215;-72
2022/11/02 09:48:13;;;;;;;0.60;0.50;;;15.00;99.90;;;;;;4992478;28;20198;-71
2022/11/02 09:50:49;;;;;;;0.57;0.40;;;15.00;99.90;;;;;;4990919;28;20194;-74
2022/11/02 09:53:29;;;;;;;2.33;0.50;;;15.00;99.90;;;;;;4992836;28;20701;-73
2022/11/02 09:56:04;;;;;;;0.90;0.40;;;15.00;99.90;;;;;;4989476;28;20279;-74
2022/11/02 09:58:39;;;;;;;0.90;0.50;;;15.00;99.90;;;;;;4992278;28;20195;-74
2022/11/02 10:01:29;;;;;;;0.80;0.50;;;14.90;99.90;;;;;;4991180;28;20662;-73
2022/11/02 10:04:22;;;;;;;2.78;0.52;;;14.90;99.90;;;;;;4991931;28;20194;-72
2022/11/02 10:07:00;;;;;;;0.82;0.40;;;14.90;99.90;;;;;;4992272;28;20274;-74
2022/11/02 10:09:40;;;;;;;1.35;0.60;;;14.90;99.90;;;;;;4991224;28;20187;-74
2022/11/02 10:12:16;;;;;;;1.15;0.50;;;14.90;99.90;;;;;;4991635;28;20203;-74
2022/11/02 10:15:00;;;;;;;0.70;0.50;;;14.90;99.90;;;;;;4992109;28;20184;-72
2022/11/02 10:17:34;;;;;;;1.92;0.50;;;14.80;99.90;;;;;;4990750;28;20196;-72
2022/11/02 10:20:14;;;;;;;1.35;0.60;;;14.80;99.90;;;;;;4992006;28;20188;-73
2022/11/02 10:22:51;;;;;;;1.25;0.55;;;14.80;99.90;;;;;;4991294;28;20198;-72
2022/11/02 10:25:25;;;;;;;1.60;0.50;;;14.80;99.90;;;;;;4990760;28;20212;-72
2022/11/02 10:28:03;;;;;;;1.05;0.55;;;14.70;99.90;;;;;;4992095;28;20597;-74
2022/11/02 10:30:35;;;;;;;1.00;0.43;;;14.70;99.90;;;;;;4991276;28;20188;-74
2022/11/02 10:33:15;;;;;;;0.63;0.45;;;14.70;99.90;;;;;;4992121;28;20198;-73
2022/11/02 10:35:57;;;;;;;0.65;0.40;;;14.70;99.90;;;;;;4992072;28;20184;-74
2022/11/02 10:38:38;;;;;;;1.67;0.50;;;14.70;99.90;;;;;;4988793;28;20226;-73
2022/11/02 10:41:25;;;;;;;2.58;0.50;;;14.60;99.90;;;;;;4990599;28;20203;-73
2022/11/02 10:44:09;;;;;;;1.08;0.60;;;14.60;99.90;;;;;;4988718;28;20202;-73
2022/11/02 10:46:50;;;;;;;1.25;0.60;;;14.60;99.90;;;;;;4991852;28;20594;-73
2022/11/02 10:49:35;;;;;;;1.60;0.60;;;14.60;99.90;;;;;;4992739;28;20234;-75
2022/11/02 10:52:12;;;;;;;1.50;0.70;;;14.60;99.90;;;;;;4995483;28;20188;-72
2022/11/02 10:54:44;;;;;;;1.55;0.40;;;14.60;99.90;;;;;;4995113;28;20555;-73
2022/11/02 10:57:22;;;;;;;2.00;0.50;;;14.60;99.90;;;;;;4995362;28;20195;-73
2022/11/02 11:00:26;;;;;;;1.20;0.50;;;14.50;99.90;;;;;;4993058;28;20571;-72
2022/11/02 11:03:14;;;;;;;2.03;0.50;;;14.50;99.90;;;;;;4994256;28;20203;-75
2022/11/02 11:06:04;;;;;;;2.58;0.60;;;14.50;99.90;;;;;;4993876;28;20223;-73
2022/11/02 11:08:42;;;;;;;0.75;0.40;;;14.50;99.90;;;;;;4994333;28;20647;-74
2022/11/02 11:11:21;;;;;;;1.15;0.40;;;14.50;99.90;;;;;;4994498;28;20188;-72
2022/11/02 11:14:00;;;;;;;1.05;0.30;;;14.50;99.90;;;;;;4994844;28;20196;-73
2022/11/02 11:16:38;;;;;;;0.77;0.40;;;14.50;99.90;;;;;;4993474;28;20188;-73
2022/11/02 11:19:20;;;;;;;0.95;0.50;;;14.50;99.90;;;;;;4994963;28;20188;-73
2022/11/02 11:21:52;;;;;;;1.35;0.40;;;14.40;99.90;;;;;;4994790;28;20183;-76
2022/11/02 11:24:28;;;;;;;2.35;0.55;;;14.40;99.90;;;;;;4994575;28;20200;-72
2022/11/02 11:27:22;;;;;;;0.80;0.40;;;14.40;99.90;;;;;;4994121;28;20187;-73
2022/11/02 11:29:57;;;;;;;0.47;0.40;;;14.40;99.90;;;;;;4989903;28;20195;-73
2022/11/02 11:32:30;;;;;;;0.63;0.47;;;14.40;99.90;;;;;;4992851;28;20194;-72
2022/11/02 11:35:05;;;;;;;0.75;0.30;;;14.40;99.90;;;;;;4992362;28;20558;-74
2022/11/02 11:37:36;;;;;;;0.50;0.50;;;14.40;99.90;;;;;;4994159;28;20226;-74
2022/11/02 11:40:19;;;;;;;1.88;0.50;;;14.40;99.90;;;;;;4994711;28;20311;-76
2022/11/02 11:42:55;;;;;;;0.70;0.40;;;14.30;99.90;;;;;;4994348;28;20643;-74
2022/11/02 11:45:29;;;;;;;0.98;0.30;;;14.30;99.90;;;;;;4990817;28;20222;-72
2022/11/02 11:48:19;;;;;;;1.40;0.30;;;14.30;99.90;;;;;;4991717;28;20646;-73
2022/11/02 11:50:50;;;;;;;1.30;0.60;;;14.30;99.90;;;;;;4994348;28;20192;-75
2022/11/02 11:53:26;;;;;;;2.22;0.60;;;14.30;99.90;;;;;;4991856;28;20188;-73
2022/11/02 11:55:59;;;;;;;0.73;0.47;;;14.30;99.90;;;;;;4987894;28;20552;-74
2022/11/02 11:58:31;;;;;;;1.27;0.38;;;14.30;99.90;;;;;;4993448;28;20191;-74
2022/11/02 12:01:19;;;;;;;1.20;0.52;;;14.20;99.90;;;;;;4991598;28;20195;-74
2022/11/02 12:03:54;;;;;;;1.58;0.40;;;14.20;99.90;;;;;;4993466;28;20222;-74
2022/11/02 12:06:31;;;;;;;0.90;0.47;;;14.20;99.90;;;;;;4991858;28;20594;-75
2022/11/02 12:09:14;;;;;;;2.67;0.50;;;14.10;99.90;;;;;;4993223;28;20188;-72
2022/11/02 12:11:54;;;;;;;1.05;0.40;;;14.10;99.90;;;;;;4992874;28;20195;-74
2022/11/02 12:14:40;;;;;;;0.38;0.38;;;14.10;99.90;;;;;;4993926;28;20192;-74
2022/11/02 12:17:42;;;;;;;2.20;0.40;;;14.10;99.90;;;;;;4993322;28;20202;-74
2022/11/02 12:20:46;;;;;;;1.08;0.40;;;14.10;99.90;;;;;;4993404;28;20187;-74
2022/11/02 12:23:33;;;;;;;1.08;0.40;;;14.10;99.90;;;;;;4992829;28;20203;-73
2022/11/02 12:26:20;;;;;;;0.77;0.40;;;14.10;99.90;;;;;;4993660;28;20219;-74
2022/11/02 12:29:00;;;;;;;0.95;0.50;;;14.10;99.90;;;;;;4992567;28;20200;-74
2022/11/02 12:31:38;;;;;;;0.88;0.40;;;14.10;99.90;;;;;;4989458;28;20196;-75
2022/11/02 12:34:36;;;;;;;0.98;0.40;;;14.10;99.90;;;;;;4989432;28;20206;-75
2022/11/02 12:37:15;;;;;;;1.00;0.50;;;14.00;99.90;;;;;;4982699;28;20219;-73
2022/11/02 12:40:01;;;;;;;1.08;0.43;;;14.10;99.90;;;;;;4988940;28;20699;-73
2022/11/02 12:42:39;;;;;;;1.05;0.50;;;14.00;99.90;;;;;;4990377;28;20207;-74
2022/11/02 12:45:26;;;;;;;1.38;0.40;;;14.00;99.90;;;;;;4992819;28;20233;-75
2022/11/02 12:48:03;;;;;;;1.08;0.40;;;14.00;99.90;;;;;;4990346;28;20195;-75
2022/11/02 12:51:03;;;;;;;0.90;0.40;;;14.00;99.90;;;;;;4989541;28;20279;-74
2022/11/02 12:53:45;;;;;;;1.20;0.45;;;14.00;99.90;;;;;;4988886;28;20204;-74
2022/11/02 12:56:27;;;;;;;0.50;0.30;;;13.90;99.90;;;;;;4985258;28;20199;-74
2022/11/02 12:59:03;;;;;;;1.38;0.50;;;13.90;99.90;;;;;;4993082;28;20266;-73
2022/11/02 13:01:42;;;;;;;1.25;0.52;;;13.90;99.90;;;;;;4988788;28;20242;-73
2022/11/02 13:04:19;;;;;;;1.58;0.50;;;13.90;99.90;;;;;;4991978;28;20203;-73
2022/11/02 13:07:03;;;;;;;2.42;0.60;;;13.80;99.90;;;;;;4992290;28;20219;-73
2022/11/02 13:09:39;;;;;;;0.80;0.50;;;13.80;99.90;;;;;;4991956;28;20198;-73
2022/11/02 13:12:15;;;;;;;0.88;0.60;;;13.80;99.90;;;;;;4990847;28;20214;-72
2022/11/02 13:14:54;;;;;;;2.05;0.50;;;13.80;99.90;;;;;;4991196;28;20218;-72
2022/11/02 13:17:29;;;;;;;2.25;0.57;;;13.80;99.90;;;;;;4989962;28;20206;-73
2022/11/02 13:20:06;;;;;;;1.85;0.47;;;13.70;99.90;;;;;;4991832;28;20560;-75
2022/11/02 13:22:42;;;;;;;1.88;0.80;;;13.70;99.90;;;;;;4988493;28;20281;-73
2022/11/02 13:25:27;;;;;;;2.15;0.73;;;13.70;99.90;;;;;;4992384;28;20195;-73
2022/11/02 13:28:05;;;;;;;2.47;0.50;;;13.70;99.90;;;;;;4987054;28;20246;-72
2022/11/02 13:30:41;;;;;;;1.13;0.60;;;13.70;99.90;;;;;;4987150;28;20207;-73
2022/11/02 13:33:25;;;;;;;1.23;0.60;;;13.70;99.90;;;;;;4986795;28;20547;-73
2022/11/02 13:35:58;;;;;;;2.05;0.80;;;13.70;99.90;;;;;;4988650;28;20195;-72
2022/11/02 13:38:37;;;;;;;1.63;0.60;;;13.60;99.90;;;;;;4988269;28;20219;-75
2022/11/02 13:41:21;;;;;;;0.77;0.50;;;13.60;99.90;;;;;;4988934;28;20206;-73